sensor_id;sensor_type;location;lat;lon;timestamp;P1;durP1;ratioP1;P2;durP2;ratioP2
76105;SDS011;64832;45.274;5.880;2023-03-01T18:06:28;10.02;;;4.72;;
76105;SDS011;64832;45.274;5.880;2023-03-01T18:08:53;6.97;;;4.82;;
76105;SDS011;64832;45.274;5.880;2023-03-01T18:11:20;5.07;;;4.18;;
76105;SDS011;64832;45.274;5.880;2023-03-01T18:13:46;5.38;;;4.00;;
76105;SDS011;64832;45.274;5.880;2023-03-01T18:16:13;6.78;;;4.82;;
76105;SDS011;64832;45.274;5.880;2023-03-01T18:21:09;5.15;;;4.47;;
76105;SDS011;64832;45.274;5.880;2023-03-01T18:23:36;7.82;;;4.30;;
76105;SDS011;64832;45.274;5.880;2023-03-01T18:26:03;4.78;;;4.22;;
76105;SDS011;64832;45.274;5.880;2023-03-01T18:28:30;5.18;;;3.83;;
76105;SDS011;64832;45.274;5.880;2023-03-01T18:30:57;5.75;;;3.92;;
76105;SDS011;64832;45.274;5.880;2023-03-01T18:33:23;6.93;;;4.45;;
76105;SDS011;64832;45.274;5.880;2023-03-01T18:35:49;7.03;;;4.28;;
76105;SDS011;64832;45.274;5.880;2023-03-01T18:38:15;7.88;;;4.38;;
76105;SDS011;64832;45.274;5.880;2023-03-01T18:40:41;5.72;;;4.28;;
76105;SDS011;64832;45.274;5.880;2023-03-01T18:43:07;6.18;;;3.80;;
76105;SDS011;64832;45.274;5.880;2023-03-01T18:45:32;7.28;;;4.10;;
76105;SDS011;64832;45.274;5.880;2023-03-01T18:47:57;6.45;;;4.18;;
76105;SDS011;64832;45.274;5.880;2023-03-01T18:50:23;5.15;;;4.00;;
76105;SDS011;64832;45.274;5.880;2023-03-01T18:52:48;6.15;;;3.88;;
76105;SDS011;64832;45.274;5.880;2023-03-01T18:55:13;4.50;;;3.53;;
76105;SDS011;64832;45.274;5.880;2023-03-01T18:57:39;7.93;;;3.60;;
76105;SDS011;64832;45.274;5.880;2023-03-01T19:00:04;5.07;;;3.60;;
76105;SDS011;64832;45.274;5.880;2023-03-01T19:02:30;5.10;;;4.00;;
76105;SDS011;64832;45.274;5.880;2023-03-01T19:04:55;4.10;;;3.53;;
76105;SDS011;64832;45.274;5.880;2023-03-01T19:07:21;5.28;;;3.92;;
76105;SDS011;64832;45.274;5.880;2023-03-01T19:09:46;5.93;;;3.63;;
76105;SDS011;64832;45.274;5.880;2023-03-01T19:12:12;3.90;;;3.20;;
76105;SDS011;64832;45.274;5.880;2023-03-01T19:14:37;3.85;;;3.55;;
76105;SDS011;64832;45.274;5.880;2023-03-01T19:17:02;5.05;;;3.58;;
76105;SDS011;64832;45.274;5.880;2023-03-01T19:19:28;4.30;;;3.72;;
76105;SDS011;64832;45.274;5.880;2023-03-01T19:21:54;4.60;;;3.67;;
76105;SDS011;64832;45.274;5.880;2023-03-01T19:24:19;5.38;;;3.75;;
76105;SDS011;64832;45.274;5.880;2023-03-01T19:26:44;5.50;;;3.58;;
76105;SDS011;64832;45.274;5.880;2023-03-01T19:29:10;4.32;;;3.92;;
76105;SDS011;64832;45.274;5.880;2023-03-01T19:31:36;6.75;;;3.70;;
76105;SDS011;64832;45.274;5.880;2023-03-01T19:34:02;5.63;;;3.58;;
76105;SDS011;64832;45.274;5.880;2023-03-01T19:36:28;5.45;;;3.80;;
76105;SDS011;64832;45.274;5.880;2023-03-01T19:39:00;10.00;;;3.70;;
76105;SDS011;64832;45.274;5.880;2023-03-01T19:41:28;4.97;;;3.53;;
76105;SDS011;64832;45.274;5.880;2023-03-01T19:43:54;4.72;;;3.58;;
76105;SDS011;64832;45.274;5.880;2023-03-01T19:46:21;4.50;;;3.70;;
76105;SDS011;64832;45.274;5.880;2023-03-01T19:48:46;4.18;;;3.72;;
76105;SDS011;64832;45.274;5.880;2023-03-01T19:51:12;4.70;;;3.70;;
76105;SDS011;64832;45.274;5.880;2023-03-01T19:53:38;4.15;;;3.75;;
76105;SDS011;64832;45.274;5.880;2023-03-01T19:56:04;4.18;;;3.28;;
76105;SDS011;64832;45.274;5.880;2023-03-01T19:58:30;4.55;;;3.50;;
76105;SDS011;64832;45.274;5.880;2023-03-01T20:00:57;4.60;;;3.83;;
76105;SDS011;64832;45.274;5.880;2023-03-01T20:03:28;4.03;;;3.63;;
76105;SDS011;64832;45.274;5.880;2023-03-01T20:06:06;5.25;;;3.60;;
76105;SDS011;64832;45.274;5.880;2023-03-01T20:08:34;4.45;;;3.58;;
76105;SDS011;64832;45.274;5.880;2023-03-01T20:11:07;4.35;;;3.67;;
76105;SDS011;64832;45.274;5.880;2023-03-01T20:13:33;4.63;;;3.70;;
76105;SDS011;64832;45.274;5.880;2023-03-01T20:15:59;4.85;;;3.92;;
76105;SDS011;64832;45.274;5.880;2023-03-01T20:18:24;4.20;;;3.75;;
76105;SDS011;64832;45.274;5.880;2023-03-01T20:20:51;5.28;;;3.85;;
76105;SDS011;64832;45.274;5.880;2023-03-01T20:23:18;3.83;;;3.53;;
76105;SDS011;64832;45.274;5.880;2023-03-01T20:25:44;4.53;;;3.80;;
76105;SDS011;64832;45.274;5.880;2023-03-01T20:28:10;6.10;;;3.80;;
76105;SDS011;64832;45.274;5.880;2023-03-01T20:30:38;6.90;;;4.00;;
76105;SDS011;64832;45.274;5.880;2023-03-01T20:33:04;4.40;;;3.58;;
76105;SDS011;64832;45.274;5.880;2023-03-01T20:35:29;4.18;;;3.70;;
76105;SDS011;64832;45.274;5.880;2023-03-01T20:37:57;3.95;;;3.40;;
76105;SDS011;64832;45.274;5.880;2023-03-01T20:40:23;8.30;;;4.03;;
76105;SDS011;64832;45.274;5.880;2023-03-01T20:42:52;4.32;;;3.78;;
76105;SDS011;64832;45.274;5.880;2023-03-01T20:45:18;4.90;;;3.80;;
76105;SDS011;64832;45.274;5.880;2023-03-01T20:47:45;5.35;;;3.50;;
76105;SDS011;64832;45.274;5.880;2023-03-01T20:50:10;5.53;;;3.80;;
76105;SDS011;64832;45.274;5.880;2023-03-01T20:52:35;4.60;;;3.70;;
76105;SDS011;64832;45.274;5.880;2023-03-01T20:55:01;4.63;;;3.90;;
76105;SDS011;64832;45.274;5.880;2023-03-01T20:57:26;7.15;;;3.80;;
76105;SDS011;64832;45.274;5.880;2023-03-01T20:59:52;4.50;;;3.83;;
76105;SDS011;64832;45.274;5.880;2023-03-01T21:02:17;5.93;;;3.40;;
76105;SDS011;64832;45.274;5.880;2023-03-01T21:04:43;4.00;;;3.25;;
76105;SDS011;64832;45.274;5.880;2023-03-01T21:07:08;4.43;;;3.55;;
76105;SDS011;64832;45.274;5.880;2023-03-01T21:09:33;4.07;;;3.65;;
76105;SDS011;64832;45.274;5.880;2023-03-01T21:11:59;4.28;;;3.55;;
76105;SDS011;64832;45.274;5.880;2023-03-01T21:14:24;5.32;;;4.10;;
76105;SDS011;64832;45.274;5.880;2023-03-01T21:16:50;6.43;;;3.90;;
